createdAt,value
2019-05-28T00:01:55.835Z,1.00
2019-05-28T00:04:26.708Z,0.90
2019-05-28T00:06:55.855Z,0.70
2019-05-28T00:09:25.611Z,0.80
2019-05-28T00:11:55.060Z,1.00
2019-05-28T00:14:24.305Z,0.97
2019-05-28T00:16:53.074Z,0.90
2019-05-28T00:19:21.964Z,0.70
2019-05-28T00:21:50.862Z,1.03
2019-05-28T00:24:21.077Z,1.17
2019-05-28T00:26:49.864Z,1.00
2019-05-28T00:29:18.652Z,0.90
2019-05-28T00:31:47.543Z,1.00
2019-05-28T00:34:17.971Z,1.00
2019-05-28T00:36:46.865Z,0.90
2019-05-28T00:39:15.753Z,0.80
2019-05-28T00:41:44.644Z,1.00
2019-05-28T00:44:13.536Z,0.90
2019-05-28T00:46:42.324Z,0.70
2019-05-28T00:49:12.445Z,1.10
2019-05-28T00:51:43.134Z,0.90
2019-05-28T00:54:12.685Z,0.90
2019-05-28T00:56:42.005Z,0.80
2019-05-28T00:59:11.389Z,0.80
2019-05-28T01:01:40.280Z,1.00
2019-05-28T01:04:09.797Z,0.86
2019-05-28T01:06:38.676Z,0.77
2019-05-28T01:09:08.759Z,1.02
2019-05-28T01:11:37.687Z,1.17
2019-05-28T01:14:06.682Z,1.00
2019-05-28T01:16:35.572Z,1.23
2019-05-28T01:19:04.567Z,1.07
2019-05-28T01:21:34.071Z,1.17
2019-05-28T01:24:02.964Z,1.20
2019-05-28T01:26:31.754Z,1.00
2019-05-28T01:29:00.561Z,0.77
2019-05-28T01:31:29.431Z,1.20
2019-05-28T01:33:58.461Z,1.10
2019-05-28T01:36:27.318Z,1.10
2019-05-28T01:38:56.208Z,1.27
2019-05-28T01:41:25.099Z,1.00
2019-05-28T01:43:53.992Z,1.00
2019-05-28T01:46:23.188Z,1.00
2019-05-28T01:48:52.081Z,0.72
2019-05-28T01:51:20.932Z,0.88
2019-05-28T01:53:49.862Z,1.10
2019-05-28T01:56:18.650Z,0.62
2019-05-28T01:58:47.442Z,1.10
2019-05-28T02:01:16.330Z,1.20
2019-05-28T02:03:45.222Z,0.97
2019-05-28T02:06:14.011Z,0.70
2019-05-28T02:08:42.902Z,1.07
2019-05-28T02:11:12.099Z,0.70
2019-05-28T02:13:40.999Z,0.87
2019-05-28T02:16:11.713Z,0.80
2019-05-28T02:18:40.653Z,0.60
2019-05-28T02:21:09.816Z,0.80
2019-05-28T02:23:38.706Z,0.80
2019-05-28T02:26:09.236Z,0.85
2019-05-28T02:28:38.101Z,1.00
2019-05-28T02:31:07.307Z,0.70
2019-05-28T02:33:36.218Z,0.80
2019-05-28T02:36:05.112Z,0.80
2019-05-28T02:38:34.005Z,0.90
2019-05-28T02:41:02.891Z,1.00
2019-05-28T02:43:31.885Z,0.80
2019-05-28T02:46:00.664Z,0.80
2019-05-28T02:48:29.464Z,0.63
2019-05-28T02:51:00.391Z,0.75
2019-05-28T02:53:30.988Z,0.90
2019-05-28T02:56:00.951Z,0.87
2019-05-28T02:58:34.788Z,0.90
2019-05-28T03:01:05.370Z,0.90
2019-05-28T03:03:34.492Z,0.80
2019-05-28T03:06:06.445Z,0.95
2019-05-28T03:08:35.543Z,1.00
2019-05-28T03:11:04.913Z,1.03
2019-05-28T03:13:34.060Z,1.00
2019-05-28T03:16:04.726Z,0.80
2019-05-28T03:18:36.418Z,1.10
2019-05-28T03:21:06.598Z,0.93
2019-05-28T03:23:38.647Z,0.85
2019-05-28T03:26:08.654Z,0.92
2019-05-28T03:28:37.614Z,1.10
2019-05-28T03:31:07.630Z,0.95
2019-05-28T03:33:36.539Z,0.70
2019-05-28T03:36:06.862Z,0.87
2019-05-28T03:38:37.342Z,1.00
2019-05-28T03:41:06.181Z,0.80
2019-05-28T03:43:35.076Z,1.03
2019-05-28T03:46:04.106Z,1.10
2019-05-28T03:48:32.959Z,1.23
2019-05-28T03:51:01.850Z,1.10
2019-05-28T03:53:30.739Z,1.20
2019-05-28T03:55:59.532Z,0.73
2019-05-28T03:58:28.319Z,1.00
2019-05-28T04:00:57.209Z,1.10
2019-05-28T04:03:26.102Z,1.20
2019-05-28T04:05:54.993Z,1.20
2019-05-28T04:08:23.884Z,1.23
2019-05-28T04:10:52.775Z,0.93
2019-05-28T04:13:21.666Z,1.50
2019-05-28T04:15:50.564Z,1.57
2019-05-28T04:18:19.449Z,1.17
2019-05-28T04:20:48.347Z,1.70
2019-05-28T04:23:17.690Z,1.73
2019-05-28T04:25:47.719Z,1.40
2019-05-28T04:28:16.555Z,1.60
2019-05-28T04:30:45.562Z,1.50
2019-05-28T04:33:14.445Z,1.60
2019-05-28T04:35:43.325Z,1.77
2019-05-28T04:38:12.523Z,1.77
2019-05-28T04:40:41.416Z,1.70
2019-05-28T04:43:10.613Z,1.70
2019-05-28T04:45:39.503Z,1.77
2019-05-28T04:48:08.466Z,1.60
2019-05-28T04:50:37.388Z,1.70
2019-05-28T04:53:06.810Z,1.83
2019-05-28T04:55:35.690Z,1.83
2019-05-28T04:58:04.573Z,2.20
2019-05-28T05:00:33.465Z,2.23
2019-05-28T05:03:02.366Z,2.17
2019-05-28T05:05:31.275Z,2.10
2019-05-28T05:08:00.141Z,2.17
2019-05-28T05:10:29.030Z,2.47
2019-05-28T05:12:57.920Z,2.20
2019-05-28T05:15:26.812Z,1.98
2019-05-28T05:17:55.703Z,1.20
2019-05-28T05:20:24.612Z,1.30
2019-05-28T05:22:53.589Z,1.00
2019-05-28T05:25:22.584Z,1.20
2019-05-28T05:27:51.505Z,0.90
2019-05-28T05:30:20.909Z,0.80
2019-05-28T05:32:49.768Z,0.80
2019-05-28T05:35:18.866Z,0.60
2019-05-28T05:37:47.756Z,0.70
2019-05-28T05:40:17.340Z,0.63
2019-05-28T05:42:46.355Z,0.50
2019-05-28T05:45:15.635Z,0.65
2019-05-28T05:47:45.777Z,0.30
2019-05-28T05:50:16.226Z,0.50
2019-05-28T05:52:45.108Z,0.57
2019-05-28T05:55:15.585Z,0.50
2019-05-28T05:57:44.413Z,0.50
2019-05-28T06:00:14.961Z,0.30
2019-05-28T06:02:43.839Z,0.40
2019-05-28T06:05:13.853Z,0.40
2019-05-28T06:07:42.756Z,0.30
2019-05-28T06:10:12.046Z,0.30
2019-05-28T06:12:40.940Z,0.30
2019-05-28T06:15:10.114Z,0.43
2019-05-28T06:17:38.922Z,0.30
2019-05-28T06:20:09.331Z,0.30
2019-05-28T06:22:38.241Z,0.40
2019-05-28T06:25:08.126Z,0.30
2019-05-28T06:27:37.049Z,0.40
2019-05-28T06:30:08.143Z,0.60
2019-05-28T06:32:38.186Z,0.30
2019-05-28T06:35:07.822Z,0.50
2019-05-28T06:37:36.707Z,0.30
2019-05-28T06:40:07.904Z,0.30
2019-05-28T06:42:39.614Z,0.50
2019-05-28T06:45:09.028Z,0.53
2019-05-28T06:47:38.007Z,0.33
2019-05-28T06:50:12.022Z,0.53
2019-05-28T06:52:41.628Z,0.50
2019-05-28T06:55:11.546Z,0.57
2019-05-28T06:57:40.433Z,0.40
2019-05-28T07:00:10.632Z,0.70
2019-05-28T07:02:39.656Z,0.60
2019-05-28T07:05:08.952Z,0.90
2019-05-28T07:07:38.040Z,0.70
2019-05-28T07:10:09.679Z,0.50
2019-05-28T07:12:38.696Z,0.60
2019-05-28T07:15:08.180Z,0.90
2019-05-28T07:17:36.993Z,1.20
2019-05-28T07:20:07.638Z,2.17
2019-05-28T07:22:36.516Z,1.60
2019-05-28T07:25:07.249Z,1.00
2019-05-28T07:27:36.242Z,0.80
2019-05-28T07:30:09.480Z,0.70
2019-05-28T07:32:38.333Z,0.70
2019-05-28T07:35:07.501Z,0.80
2019-05-28T07:37:36.312Z,0.80
2019-05-28T07:40:09.540Z,0.70
2019-05-28T07:42:38.403Z,0.90
2019-05-28T07:45:09.005Z,0.90
2019-05-28T07:47:37.828Z,0.83
2019-05-28T07:50:09.870Z,1.20
2019-05-28T07:52:38.775Z,1.00
2019-05-28T07:55:08.185Z,1.50
2019-05-28T07:57:37.067Z,1.80
2019-05-28T08:00:07.750Z,2.30
2019-05-28T08:02:36.795Z,2.30
2019-05-28T08:05:09.320Z,2.30
2019-05-28T08:07:38.265Z,2.83
2019-05-28T08:10:08.620Z,3.17
2019-05-28T08:12:37.638Z,2.83
2019-05-28T08:15:07.808Z,2.77
2019-05-28T08:17:36.775Z,3.00
2019-05-28T08:20:06.759Z,3.00
2019-05-28T08:22:42.137Z,3.10
2019-05-28T08:25:23.584Z,2.80
2019-05-28T08:27:37.587Z,2.93
2019-05-28T08:30:08.136Z,3.07
2019-05-28T08:32:37.010Z,2.47
2019-05-28T08:35:07.378Z,3.40
2019-05-28T08:37:36.326Z,2.77
2019-05-28T08:40:07.064Z,2.77
2019-05-28T08:42:36.054Z,2.50
2019-05-28T08:45:06.542Z,2.15
2019-05-28T08:47:35.519Z,2.80
2019-05-28T08:50:06.101Z,2.70
2019-05-28T08:52:35.003Z,2.67
2019-05-28T08:55:04.783Z,2.90
2019-05-28T08:57:37.240Z,3.03
2019-05-28T09:00:11.510Z,2.80
2019-05-28T09:02:40.392Z,1.97
2019-05-28T09:05:25.101Z,2.24
2019-05-28T09:07:40.941Z,2.30
2019-05-28T09:10:10.407Z,2.50
2019-05-28T09:12:39.343Z,2.50
2019-05-28T09:15:08.923Z,2.98
2019-05-28T09:17:39.285Z,2.85
2019-05-28T09:20:08.881Z,2.02
2019-05-28T09:22:37.771Z,2.50
2019-05-28T09:25:07.169Z,2.63
2019-05-28T09:27:35.964Z,3.27
2019-05-28T09:30:07.720Z,4.20
2019-05-28T09:32:36.641Z,3.97
2019-05-28T09:35:09.572Z,1.80
2019-05-28T09:37:38.507Z,2.00
2019-05-28T09:40:08.181Z,2.30
2019-05-28T09:42:37.197Z,2.23
2019-05-28T09:45:21.743Z,2.17
2019-05-28T09:47:38.049Z,2.30
2019-05-28T09:50:26.931Z,2.60
2019-05-28T09:52:52.946Z,2.67
2019-05-28T09:55:10.063Z,2.70
2019-05-28T09:57:47.314Z,2.60
2019-05-28T10:00:17.350Z,1.60
2019-05-28T10:02:46.349Z,1.17
2019-05-28T10:05:15.647Z,1.67
2019-05-28T10:07:44.536Z,1.80
2019-05-28T10:10:13.633Z,1.60
2019-05-28T10:12:42.637Z,1.30
2019-05-28T10:15:12.627Z,1.20
2019-05-28T10:17:41.433Z,1.43
2019-05-28T10:20:12.224Z,1.42
2019-05-28T10:22:41.161Z,1.60
2019-05-28T10:25:11.181Z,1.42
2019-05-28T10:27:58.497Z,1.30
2019-05-28T10:30:14.608Z,1.40
2019-05-28T10:32:43.590Z,1.60
2019-05-28T10:35:13.582Z,1.40
2019-05-28T10:37:42.404Z,1.40
2019-05-28T10:40:12.727Z,1.77
2019-05-28T10:42:43.519Z,2.03
2019-05-28T10:45:14.318Z,2.23
2019-05-28T10:47:43.189Z,1.70
2019-05-28T10:50:12.792Z,1.20
2019-05-28T10:52:41.681Z,1.40
2019-05-28T10:55:15.675Z,1.30
2019-05-28T10:57:42.777Z,1.47
2019-05-28T11:00:12.853Z,2.40
2019-05-28T11:02:41.764Z,1.60
2019-05-28T11:05:13.262Z,1.52
2019-05-28T11:07:42.093Z,1.63
2019-05-28T11:10:23.779Z,1.75
2019-05-28T11:12:43.765Z,1.27
2019-05-28T11:15:13.801Z,6.43
2019-05-28T11:17:42.674Z,1.57
2019-05-28T11:20:14.444Z,1.45
2019-05-28T11:22:43.324Z,1.40
2019-05-28T11:25:13.241Z,1.40
2019-05-28T11:27:42.130Z,1.40
2019-05-28T11:30:13.776Z,1.72
2019-05-28T11:32:44.215Z,1.60
2019-05-28T11:35:14.548Z,1.50
2019-05-28T11:37:43.433Z,1.13
2019-05-28T11:40:15.271Z,1.77
2019-05-28T11:42:45.308Z,1.70
2019-05-28T11:45:17.140Z,1.60
2019-05-28T11:47:50.184Z,1.27
2019-05-28T11:50:19.281Z,1.13
2019-05-28T11:52:48.254Z,0.87
2019-05-28T11:55:17.836Z,1.07
2019-05-28T11:57:49.408Z,1.40
2019-05-28T12:00:18.791Z,0.93
2019-05-28T12:02:47.807Z,0.97
2019-05-28T12:05:17.013Z,1.70
2019-05-28T12:07:45.894Z,1.77
2019-05-28T12:10:16.687Z,0.90
2019-05-28T12:12:45.621Z,1.30
2019-05-28T12:15:16.603Z,1.27
2019-05-28T12:17:45.830Z,1.57
2019-05-28T12:20:18.016Z,1.00
2019-05-28T12:22:47.029Z,1.00
2019-05-28T12:25:16.409Z,1.10
2019-05-28T12:27:45.216Z,0.93
2019-05-28T12:30:18.515Z,1.00
2019-05-28T12:32:47.093Z,0.93
2019-05-28T12:35:28.369Z,1.20
2019-05-28T12:37:50.458Z,1.57
2019-05-28T12:40:19.273Z,1.30
2019-05-28T12:42:48.192Z,1.37
2019-05-28T12:45:17.679Z,1.50
2019-05-28T12:48:06.995Z,1.23
2019-05-28T12:50:20.310Z,1.60
2019-05-28T12:52:48.162Z,2.27
2019-05-28T12:55:17.740Z,1.67
2019-05-28T12:57:46.656Z,1.20
2019-05-28T13:00:16.048Z,1.70
2019-05-28T13:02:44.958Z,1.83
2019-05-28T13:05:19.018Z,1.50
2019-05-28T13:08:06.372Z,1.57
2019-05-28T13:10:18.805Z,1.60
2019-05-28T13:12:47.688Z,1.53
2019-05-28T13:15:18.228Z,1.40
2019-05-28T13:17:47.110Z,1.83
2019-05-28T13:20:16.850Z,2.10
2019-05-28T13:22:46.631Z,2.17
2019-05-28T13:25:15.623Z,1.80
2019-05-28T13:27:44.511Z,2.10
2019-05-28T13:30:14.870Z,2.23
2019-05-28T13:32:44.752Z,2.10
2019-05-28T13:35:16.115Z,1.60
2019-05-28T13:37:45.002Z,2.30
2019-05-28T13:40:16.019Z,2.13
2019-05-28T13:42:44.823Z,1.53
2019-05-28T13:45:14.784Z,2.50
2019-05-28T13:47:43.629Z,1.57
2019-05-28T13:50:14.776Z,1.92
2019-05-28T13:52:43.955Z,2.27
2019-05-28T13:55:13.684Z,12.40
2019-05-28T13:57:42.882Z,7.73
2019-05-28T14:00:17.674Z,8.00
2019-05-28T14:02:46.989Z,8.73
2019-05-28T14:05:16.898Z,10.30
2019-05-28T14:07:45.919Z,2.80
2019-05-28T14:10:17.976Z,2.47
2019-05-28T14:12:48.312Z,2.30
2019-05-28T14:15:17.499Z,2.20
2019-05-28T14:17:46.312Z,2.10
2019-05-28T14:20:15.623Z,1.75
2019-05-28T14:22:44.507Z,1.70
2019-05-28T14:25:15.150Z,1.70
2019-05-28T14:27:44.126Z,1.60
2019-05-28T14:30:18.337Z,1.53
2019-05-28T14:32:47.238Z,1.63
2019-05-28T14:35:16.325Z,1.70
2019-05-28T14:37:45.213Z,2.00
2019-05-28T14:40:15.548Z,1.77
2019-05-28T14:42:44.633Z,1.90
2019-05-28T14:45:14.406Z,1.90
2019-05-28T14:47:44.776Z,1.57
2019-05-28T14:50:22.093Z,1.62
2019-05-28T14:52:52.389Z,2.13
2019-05-28T14:55:21.502Z,2.00
2019-05-28T14:57:50.471Z,2.20
2019-05-28T15:00:19.957Z,1.80
2019-05-28T15:02:49.585Z,1.60
2019-05-28T15:05:18.564Z,1.75
2019-05-28T15:07:47.371Z,1.50
2019-05-28T15:10:19.360Z,1.50
2019-05-28T15:12:48.223Z,1.70
2019-05-28T15:15:34.581Z,1.17
2019-05-28T15:17:48.259Z,1.47
2019-05-28T15:20:17.847Z,1.45
2019-05-28T15:22:46.758Z,1.50
2019-05-28T15:25:16.878Z,1.82
2019-05-28T15:27:45.807Z,1.20
2019-05-28T15:30:15.655Z,1.73
2019-05-28T15:32:44.685Z,1.40
2019-05-28T15:35:14.268Z,1.53
2019-05-28T15:37:43.129Z,1.50
2019-05-28T15:40:13.295Z,1.35
2019-05-28T15:42:42.188Z,1.30
2019-05-28T15:45:12.802Z,1.30
2019-05-28T15:47:44.787Z,1.30
2019-05-28T15:50:13.548Z,1.20
2019-05-28T15:52:42.462Z,1.70
2019-05-28T15:55:14.165Z,1.35
2019-05-28T15:57:43.083Z,1.53
2019-05-28T16:00:21.377Z,1.47
2019-05-28T16:02:50.318Z,1.20
2019-05-28T16:05:19.308Z,1.85
2019-05-28T16:07:48.099Z,1.50
2019-05-28T16:10:17.382Z,1.60
2019-05-28T16:12:46.604Z,1.30
2019-05-28T16:15:16.797Z,1.70
2019-05-28T16:17:45.609Z,1.80
2019-05-28T16:20:15.495Z,2.10
2019-05-28T16:22:44.456Z,1.87
2019-05-28T16:25:15.384Z,1.97
2019-05-28T16:27:45.855Z,1.80
2019-05-28T16:30:15.339Z,1.83
2019-05-28T16:32:44.285Z,1.80
2019-05-28T16:35:13.683Z,2.20
2019-05-28T16:37:42.573Z,2.30
2019-05-28T16:40:15.696Z,1.42
2019-05-28T16:42:42.921Z,1.17
2019-05-28T16:45:13.715Z,0.87
2019-05-28T16:47:42.546Z,0.83
2019-05-28T16:50:13.567Z,0.72
2019-05-28T16:52:42.680Z,0.80
2019-05-28T16:55:12.902Z,0.90
2019-05-28T16:57:41.792Z,1.20
2019-05-28T17:00:11.919Z,0.90
2019-05-28T17:02:41.830Z,0.87
2019-05-28T17:05:11.265Z,0.63
2019-05-28T17:07:40.123Z,0.80
2019-05-28T17:10:10.142Z,2.20
2019-05-28T17:12:39.086Z,1.10
2019-05-28T17:15:09.870Z,11.63
2019-05-28T17:17:39.069Z,3.33
2019-05-28T17:20:09.252Z,1.00
2019-05-28T17:22:38.592Z,1.10
2019-05-28T17:25:11.691Z,0.80
2019-05-28T17:27:40.470Z,0.90
2019-05-28T17:30:23.313Z,1.17
2019-05-28T17:32:40.416Z,0.70
2019-05-28T17:35:10.249Z,0.90
2019-05-28T17:37:39.213Z,1.00
2019-05-28T17:40:08.625Z,1.43
2019-05-28T17:42:37.502Z,1.37
2019-05-28T17:45:07.082Z,1.20
2019-05-28T17:47:43.127Z,0.90
2019-05-28T17:50:08.189Z,0.80
2019-05-28T17:52:37.350Z,0.87
2019-05-28T17:55:07.327Z,1.20
2019-05-28T17:57:36.384Z,1.00
2019-05-28T18:00:06.766Z,0.97
2019-05-28T18:02:35.717Z,1.23
2019-05-28T18:05:05.685Z,1.20
2019-05-28T18:07:34.606Z,1.27
2019-05-28T18:10:08.622Z,1.17
2019-05-28T18:12:37.509Z,0.60
2019-05-28T18:15:10.243Z,0.83
2019-05-28T18:17:39.088Z,0.87
2019-05-28T18:20:10.272Z,0.90
2019-05-28T18:22:41.746Z,0.83
2019-05-28T18:25:12.264Z,0.80
2019-05-28T18:27:41.099Z,0.77
2019-05-28T18:30:11.326Z,0.70
2019-05-28T18:32:40.219Z,1.00
2019-05-28T18:35:10.799Z,0.80
2019-05-28T18:37:41.628Z,0.87
2019-05-28T18:40:12.417Z,0.60
2019-05-28T18:42:46.825Z,1.00
2019-05-28T18:45:16.108Z,0.67
2019-05-28T18:47:45.235Z,0.80
2019-05-28T18:50:14.676Z,0.70
2019-05-28T18:52:45.206Z,0.90
2019-05-28T18:55:15.276Z,0.68
2019-05-28T18:57:50.373Z,0.60
2019-05-28T19:00:15.700Z,0.80
2019-05-28T19:02:44.627Z,1.03
2019-05-28T19:05:16.049Z,1.00
2019-05-28T19:07:44.878Z,1.10
2019-05-28T19:10:15.418Z,0.70
2019-05-28T19:12:44.291Z,0.87
2019-05-28T19:15:14.406Z,0.87
2019-05-28T19:17:43.300Z,0.63
2019-05-28T19:20:15.280Z,1.00
2019-05-28T19:22:44.161Z,0.87
2019-05-28T19:25:14.472Z,1.10
2019-05-28T19:27:43.415Z,0.60
2019-05-28T19:30:14.411Z,0.80
2019-05-28T19:32:44.115Z,1.47
2019-05-28T19:35:13.014Z,0.80
2019-05-28T19:37:43.607Z,0.83
2019-05-28T19:40:14.607Z,1.00
2019-05-28T19:42:43.467Z,1.10
2019-05-28T19:45:13.285Z,1.00
2019-05-28T19:47:43.302Z,1.50
2019-05-28T19:50:13.449Z,0.90
2019-05-28T19:52:42.305Z,1.00
2019-05-28T19:55:11.632Z,1.20
2019-05-28T19:57:40.506Z,0.97
2019-05-28T20:00:10.343Z,1.27
2019-05-28T20:02:39.316Z,1.27
2019-05-28T20:05:09.667Z,0.90
2019-05-28T20:07:38.527Z,1.10
2019-05-28T20:10:08.507Z,1.07
2019-05-28T20:12:37.435Z,0.90
2019-05-28T20:15:08.749Z,0.93
2019-05-28T20:17:37.736Z,0.87
2019-05-28T20:20:08.216Z,0.90
2019-05-28T20:22:37.111Z,1.10
2019-05-28T20:25:07.280Z,1.20
2019-05-28T20:27:37.743Z,1.10
2019-05-28T20:30:07.865Z,0.93
2019-05-28T20:32:36.773Z,1.20
2019-05-28T20:35:07.777Z,1.40
2019-05-28T20:37:36.688Z,1.47
2019-05-28T20:40:08.046Z,1.03
2019-05-28T20:42:37.476Z,1.20
2019-05-28T20:45:11.860Z,1.00
2019-05-28T20:47:40.445Z,1.00
2019-05-28T20:50:11.795Z,1.15
2019-05-28T20:52:40.993Z,1.30
2019-05-28T20:55:10.807Z,1.35
2019-05-28T20:57:39.712Z,1.50
2019-05-28T21:00:13.535Z,1.30
2019-05-28T21:02:42.412Z,1.53
2019-05-28T21:05:12.909Z,1.27
2019-05-28T21:07:41.812Z,1.60
2019-05-28T21:10:11.730Z,1.50
2019-05-28T21:12:44.508Z,1.77
2019-05-28T21:15:15.860Z,2.47
2019-05-28T21:17:44.139Z,2.13
2019-05-28T21:20:13.751Z,1.95
2019-05-28T21:22:42.637Z,2.25
2019-05-28T21:25:12.450Z,2.22
2019-05-28T21:27:41.347Z,1.70
2019-05-28T21:30:11.256Z,1.93
2019-05-28T21:32:40.149Z,1.93
2019-05-28T21:35:10.373Z,1.80
2019-05-28T21:37:39.259Z,1.93
2019-05-28T21:40:10.174Z,2.40
2019-05-28T21:42:39.067Z,1.77
2019-05-28T21:45:09.079Z,2.15
2019-05-28T21:47:37.897Z,2.17
2019-05-28T21:50:08.183Z,2.00
2019-05-28T21:52:37.011Z,1.60
2019-05-28T21:55:10.421Z,1.90
2019-05-28T21:57:39.297Z,2.10
2019-05-28T22:00:30.822Z,1.70
2019-05-28T22:03:00.692Z,1.97
2019-05-28T22:05:29.626Z,1.87
2019-05-28T22:07:59.432Z,1.83
2019-05-28T22:10:29.253Z,2.00
2019-05-28T22:13:12.322Z,1.60
2019-05-28T22:15:28.884Z,2.03
2019-05-28T22:17:58.020Z,2.10
2019-05-28T22:20:26.970Z,1.77
2019-05-28T22:22:56.310Z,1.80
2019-05-28T22:25:25.365Z,1.90
2019-05-28T22:27:54.160Z,1.87
2019-05-28T22:30:23.642Z,2.10
2019-05-28T22:32:52.557Z,2.20
2019-05-28T22:35:21.548Z,1.57
2019-05-28T22:37:50.437Z,1.60
2019-05-28T22:40:19.535Z,2.10
2019-05-28T22:42:48.425Z,1.87
2019-05-28T22:45:17.408Z,2.00
2019-05-28T22:47:46.209Z,2.10
2019-05-28T22:50:22.888Z,2.30
2019-05-28T22:52:47.473Z,2.83
2019-05-28T22:55:16.647Z,2.60
2019-05-28T22:57:45.460Z,2.90
2019-05-28T23:00:14.775Z,3.15
2019-05-28T23:02:43.648Z,2.97
2019-05-28T23:05:12.948Z,3.08
2019-05-28T23:07:41.838Z,2.33
2019-05-28T23:10:11.192Z,3.33
2019-05-28T23:12:40.134Z,3.10
2019-05-28T23:15:10.617Z,3.27
2019-05-28T23:17:39.457Z,3.10
2019-05-28T23:20:10.989Z,4.00
2019-05-28T23:22:40.307Z,3.10
2019-05-28T23:25:11.715Z,3.22
2019-05-28T23:27:40.644Z,3.80
2019-05-28T23:30:23.321Z,3.90
2019-05-28T23:32:41.196Z,4.00
2019-05-28T23:35:12.721Z,3.90
2019-05-28T23:37:41.645Z,3.87
2019-05-28T23:40:11.762Z,3.50
2019-05-28T23:42:40.561Z,3.97
2019-05-28T23:45:11.762Z,3.42
2019-05-28T23:47:40.793Z,3.27
2019-05-28T23:50:14.214Z,3.70
2019-05-28T23:52:40.530Z,3.17
2019-05-28T23:55:10.015Z,2.45
2019-05-28T23:57:38.817Z,2.77
